Strona główna
METAR-TAF:

METAR-TAF

Lotnisko :

Port lotniczy Tunis

Tunis, Tunezja

Szerokość geograficzna: 36-50N, Długość geograficzna: 010-14E, wysokość: 3 m

Aktualna obserwacja pogody

Raport powstał 34 minut temu, godzina 15:30 UTC
Wiatr 8 kt z kierunków zmiennych
Temperatura 29°C
Wilgotność 55%
Ciśnienie 1019 hPa
Widzialność 10 km lub więcej
Rozproszone chmury na wysokości 2600 ft

METAR: DTTA 231530Z VRB08KT 9999 SCT026 29/19 Q1019 NOSIG

czas: 17:04 (16:04 UTC)

Prognoza

Raport powstał 5 godziny i 4 minut temu, godzina 11:00 UTC
Prognoza ważna od 23 godzina 12 UTC do 24 godzina 12 UTC
Wiatr 10 kt od północny zachód
Widzialność 10 km lub więcej
Rozproszone chmury na wysokości 2600 ft
Stopniowe zmiany
od 23 godzina 21 UTC do 23 godzina 23 UTC
Wiatr 5 kt od zachodnio-południowy zachód
Stopniowe zmiany
od 24 godzina 10 UTC do 24 godzina 12 UTC
Wiatr 13 kt od północny zachód

TAF: DTTA 231100Z 2312/2412 31010KT 9999 SCT026 BECMG 2321/2323 25005KT BECMG 2410/2412 31013KT

Obserwacja i prognoza pogody dla ponad 4000 lotnisk (raport METAR i TAF).

Dostępne stacje oznaczono żółtymi i czerwonymi punktami na mapie.

Najedź kursorem aby zobaczyć nazwę stacji.

Kliknij aby zobaczyć obserwacje i prognozy pogody.

Aby zmienić mapę: kliknij na zielony przycisk z czarnym krzyżykiem, aby powiększyć; na zielony przycisk z myślnikiem, aby pomniejszyć; na zielone strzałki, aby przejść do map sąsiednich.


METAR-TAF: